Time,TemperatureF,DewpointF,PressureIn,WindDirection,WindDirectionDegrees,WindSpeedMPH,WindSpeedGustMPH,Humidity,HourlyPrecipIn,Conditions,Clouds,dailyrainin,SoftwareType,DateUTC
2013-02-06 00:01:00,54.0,30.0,29.97,NNW,329,2.0,6.0,39,0.00,,,0.00,,2013-02-06 08:01:00,
2013-02-06 00:11:00,54.0,30.0,29.97,NNW,329,2.0,6.0,39,0.00,,,0.00,,2013-02-06 08:11:00,
2013-02-06 00:21:00,54.0,28.0,29.96,NNW,329,0.0,2.0,36,0.00,,,0.00,,2013-02-06 08:21:00,
2013-02-06 00:31:00,54.0,28.0,29.96,NNW,329,0.0,3.0,37,0.00,,,0.00,,2013-02-06 08:31:00,
2013-02-06 00:41:00,54.0,28.0,29.96,NNW,329,0.0,3.0,37,0.00,,,0.00,,2013-02-06 08:41:00,
2013-02-06 00:53:00,56.0,27.0,29.96,SSW,198,7.0,14.0,32,0.00,,,0.00,,2013-02-06 08:53:00,
2013-02-06 01:01:00,58.0,27.0,29.96,SSW,199,2.0,9.0,30,0.00,,,0.00,,2013-02-06 09:01:00,
2013-02-06 01:11:00,58.0,27.0,29.96,SSW,199,2.0,9.0,30,0.00,,,0.00,,2013-02-06 09:11:00,
2013-02-06 01:21:00,58.0,27.0,29.96,SSW,199,0.0,5.0,30,0.00,,,0.00,,2013-02-06 09:21:00,
2013-02-06 01:31:00,57.0,29.0,29.95,WSW,256,2.0,6.0,34,0.00,,,0.00,,2013-02-06 09:31:00,
2013-02-06 01:41:00,57.0,29.0,29.95,WSW,256,2.0,6.0,34,0.00,,,0.00,,2013-02-06 09:41:00,
2013-02-06 01:52:00,55.0,29.0,29.96,WSW,256,1.0,5.0,37,0.00,,,0.00,,2013-02-06 09:52:00,
2013-02-06 02:01:00,54.0,30.0,29.96,WSW,256,0.0,0.0,39,0.00,,,0.00,,2013-02-06 10:01:00,
2013-02-06 02:11:00,54.0,30.0,29.96,WSW,256,0.0,0.0,39,0.00,,,0.00,,2013-02-06 10:11:00,
2013-02-06 02:21:00,53.0,29.0,29.96,WSW,256,2.0,4.0,40,0.00,,,0.00,,2013-02-06 10:21:00,
2013-02-06 02:31:00,53.0,29.0,29.96,WSW,256,2.0,4.0,40,0.00,,,0.00,,2013-02-06 10:31:00,
2013-02-06 02:41:00,53.0,29.0,29.96,WSW,256,2.0,4.0,40,0.00,,,0.00,,2013-02-06 10:41:00,
2013-02-06 02:52:00,52.0,29.0,29.95,West,259,4.0,7.0,41,0.00,,,0.00,,2013-02-06 10:52:00,
2013-02-06 03:01:00,52.0,28.0,29.95,West,265,2.0,10.0,40,0.00,,,0.00,,2013-02-06 11:01:00,
2013-02-06 03:11:00,52.0,28.0,29.95,West,265,2.0,10.0,40,0.00,,,0.00,,2013-02-06 11:11:00,
2013-02-06 03:21:00,52.0,28.0,29.95,West,265,2.0,10.0,40,0.00,,,0.00,,2013-02-06 11:21:00,
2013-02-06 03:31:00,52.0,29.0,29.94,WNW,284,2.0,5.0,41,0.00,,,0.00,,2013-02-06 11:31:00,
2013-02-06 03:42:00,52.0,29.0,29.94,WNW,284,2.0,5.0,41,0.00,,,0.00,,2013-02-06 11:42:00,
2013-02-06 03:52:00,53.0,29.0,29.95,WNW,289,0.0,5.0,39,0.00,,,0.00,,2013-02-06 11:52:00,
2013-02-06 04:01:00,52.0,29.0,29.96,WNW,293,2.0,6.0,41,0.00,,,0.00,,2013-02-06 12:01:00,
2013-02-06 04:12:00,52.0,29.0,29.96,WNW,293,2.0,6.0,41,0.00,,,0.00,,2013-02-06 12:12:00,
2013-02-06 04:22:00,51.0,29.0,29.96,WNW,301,3.0,8.0,43,0.00,,,0.00,,2013-02-06 12:22:00,
2013-02-06 04:32:00,51.0,29.0,29.96,WNW,301,3.0,8.0,43,0.00,,,0.00,,2013-02-06 12:32:00,
2013-02-06 04:41:00,51.0,29.0,29.96,WNW,301,3.0,8.0,43,0.00,,,0.00,,2013-02-06 12:41:00,
2013-02-06 04:52:00,50.0,29.0,29.97,WNW,302,0.0,0.0,44,0.00,,,0.00,,2013-02-06 12:52:00,
2013-02-06 05:01:00,49.0,29.0,29.98,WNW,302,0.0,0.0,46,0.00,,,0.00,,2013-02-06 13:01:00,
2013-02-06 05:11:00,49.0,29.0,29.98,WNW,302,0.0,0.0,46,0.00,,,0.00,,2013-02-06 13:11:00,
2013-02-06 05:21:00,48.0,29.0,29.98,WNW,302,0.0,4.0,48,0.00,,,0.00,,2013-02-06 13:21:00,
2013-02-06 05:31:00,47.0,29.0,29.99,WNW,302,0.0,0.0,49,0.00,,,0.00,,2013-02-06 13:31:00,
2013-02-06 05:41:00,47.0,29.0,29.99,WNW,302,0.0,0.0,49,0.00,,,0.00,,2013-02-06 13:41:00,
2013-02-06 05:52:00,47.0,29.0,29.99,WNW,301,0.0,0.0,50,0.00,,,0.00,,2013-02-06 13:52:00,
2013-02-06 06:01:00,46.0,29.0,29.99,WNW,301,0.0,0.0,51,0.00,,,0.00,,2013-02-06 14:01:00,
2013-02-06 06:11:00,46.0,29.0,29.99,WNW,301,0.0,0.0,51,0.00,,,0.00,,2013-02-06 14:11:00,
2013-02-06 06:21:00,46.0,29.0,29.99,WNW,301,0.0,1.0,52,0.00,,,0.00,,2013-02-06 14:21:00,
2013-02-06 06:31:00,46.0,29.0,30.00,WNW,302,0.0,3.0,52,0.00,,,0.00,,2013-02-06 14:31:00,
2013-02-06 06:41:00,46.0,29.0,30.00,WNW,302,0.0,3.0,52,0.00,,,0.00,,2013-02-06 14:41:00,
2013-02-06 06:52:00,45.0,29.0,30.00,WNW,301,0.0,3.0,53,0.00,,,0.00,,2013-02-06 14:52:00,
2013-02-06 07:01:00,45.0,29.0,30.01,West,261,0.0,6.0,53,0.00,,,0.00,,2013-02-06 15:01:00,
2013-02-06 07:11:00,45.0,29.0,30.01,West,261,0.0,6.0,53,0.00,,,0.00,,2013-02-06 15:11:00,
2013-02-06 07:21:00,46.0,30.0,30.01,West,259,0.0,0.0,53,0.00,,,0.00,,2013-02-06 15:21:00,
2013-02-06 07:31:00,46.0,30.0,30.02,West,259,0.0,0.0,53,0.00,,,0.00,,2013-02-06 15:31:00,
2013-02-06 07:41:00,46.0,30.0,30.02,West,259,0.0,0.0,53,0.00,,,0.00,,2013-02-06 15:41:00,
2013-02-06 07:52:00,46.0,30.0,30.02,West,259,0.0,0.0,53,0.00,,,0.00,,2013-02-06 15:52:00,
2013-02-06 08:01:00,48.0,31.0,30.03,West,259,0.0,0.0,51,0.00,,,0.00,,2013-02-06 16:01:00,
2013-02-06 08:11:00,48.0,31.0,30.03,West,259,0.0,0.0,51,0.00,,,0.00,,2013-02-06 16:11:00,
2013-02-06 08:21:00,52.0,31.0,30.04,West,259,0.0,3.0,45,0.00,,,0.00,,2013-02-06 16:21:00,
2013-02-06 08:31:00,54.0,31.0,30.05,West,259,0.0,4.0,41,0.00,,,0.00,,2013-02-06 16:31:00,
2013-02-06 08:41:00,54.0,31.0,30.05,West,259,0.0,4.0,41,0.00,,,0.00,,2013-02-06 16:41:00,
2013-02-06 08:52:00,55.0,31.0,30.05,West,259,0.0,3.0,40,0.00,,,0.00,,2013-02-06 16:52:00,
2013-02-06 09:01:00,56.0,29.0,30.05,WSW,242,0.0,5.0,36,0.00,,,0.00,,2013-02-06 17:01:00,
2013-02-06 09:11:00,56.0,29.0,30.05,WSW,242,0.0,5.0,36,0.00,,,0.00,,2013-02-06 17:11:00,
2013-02-06 09:21:00,57.0,28.0,30.06,SW,218,0.0,3.0,33,0.00,,,0.00,,2013-02-06 17:21:00,
2013-02-06 09:32:00,58.0,29.0,30.06,SW,217,1.0,4.0,33,0.00,,,0.00,,2013-02-06 17:32:00,
2013-02-06 09:41:00,58.0,29.0,30.06,SW,217,1.0,4.0,33,0.00,,,0.00,,2013-02-06 17:41:00,
2013-02-06 09:52:00,59.0,31.0,30.07,SW,214,1.0,7.0,34,0.00,,,0.00,,2013-02-06 17:52:00,
2013-02-06 10:01:00,60.0,31.0,30.07,SW,214,2.0,4.0,33,0.00,,,0.00,,2013-02-06 18:01:00,
2013-02-06 10:11:00,61.0,32.0,30.07,South,180,2.0,9.0,33,0.00,,,0.00,,2013-02-06 18:11:00,
2013-02-06 10:22:00,61.0,32.0,30.07,South,180,2.0,9.0,33,0.00,,,0.00,,2013-02-06 18:22:00,
2013-02-06 10:32:00,62.0,31.0,30.08,South,179,0.0,5.0,31,0.00,,,0.00,,2013-02-06 18:32:00,
2013-02-06 10:41:00,62.0,31.0,30.08,South,179,0.0,5.0,31,0.00,,,0.00,,2013-02-06 18:41:00,
2013-02-06 10:52:00,62.0,28.0,30.07,South,179,0.0,0.0,27,0.00,,,0.00,,2013-02-06 18:52:00,
2013-02-06 11:01:00,63.0,28.0,30.07,ESE,109,1.0,7.0,26,0.00,,,0.00,,2013-02-06 19:01:00,
2013-02-06 11:11:00,63.0,28.0,30.07,ESE,109,1.0,7.0,26,0.00,,,0.00,,2013-02-06 19:11:00,
2013-02-06 11:21:00,65.0,26.0,30.06,North,5,8.0,14.0,23,0.00,,,0.00,,2013-02-06 19:21:00,
2013-02-06 11:31:00,66.0,25.0,30.06,North,355,9.0,17.0,21,0.00,,,0.00,,2013-02-06 19:31:00,
2013-02-06 11:41:00,66.0,25.0,30.06,North,355,9.0,17.0,21,0.00,,,0.00,,2013-02-06 19:41:00,
2013-02-06 11:52:00,67.0,25.0,30.05,North,350,8.0,14.0,20,0.00,,,0.00,,2013-02-06 19:52:00,
2013-02-06 12:01:00,67.0,25.0,30.05,NNE,26,9.0,18.0,20,0.00,,,0.00,,2013-02-06 20:01:00,
2013-02-06 12:11:00,66.0,23.0,30.05,NNE,13,10.0,17.0,19,0.00,,,0.00,,2013-02-06 20:11:00,
2013-02-06 12:21:00,66.0,23.0,30.05,NNE,13,10.0,17.0,19,0.00,,,0.00,,2013-02-06 20:21:00,
2013-02-06 12:31:00,67.0,23.0,30.04,NNW,337,8.0,15.0,19,0.00,,,0.00,,2013-02-06 20:31:00,
2013-02-06 12:41:00,67.0,23.0,30.04,NNW,337,8.0,15.0,19,0.00,,,0.00,,2013-02-06 20:41:00,
2013-02-06 12:52:00,68.0,23.0,30.04,North,355,12.0,19.0,18,0.00,,,0.00,,2013-02-06 20:52:00,
2013-02-06 13:01:00,68.0,22.0,30.04,North,11,11.0,17.0,17,0.00,,,0.00,,2013-02-06 21:01:00,
2013-02-06 13:11:00,68.0,22.0,30.04,North,11,11.0,17.0,17,0.00,,,0.00,,2013-02-06 21:11:00,
2013-02-06 13:21:00,67.0,22.0,30.04,NNE,15,12.0,18.0,18,0.00,,,0.00,,2013-02-06 21:21:00,
2013-02-06 13:31:00,67.0,22.0,30.03,NNE,15,8.0,14.0,18,0.00,,,0.00,,2013-02-06 21:31:00,
2013-02-06 13:41:00,67.0,22.0,30.03,NNE,15,8.0,14.0,18,0.00,,,0.00,,2013-02-06 21:41:00,
2013-02-06 13:52:00,68.0,22.0,30.03,NNW,335,7.0,13.0,17,0.00,,,0.00,,2013-02-06 21:52:00,
2013-02-06 14:01:00,69.0,19.0,30.03,NNW,331,10.0,16.0,15,0.00,,,0.00,,2013-02-06 22:01:00,
2013-02-06 14:11:00,69.0,19.0,30.03,NNW,331,10.0,16.0,15,0.00,,,0.00,,2013-02-06 22:11:00,
2013-02-06 14:21:00,68.0,20.0,30.03,NNW,333,8.0,17.0,16,0.00,,,0.00,,2013-02-06 22:21:00,
2013-02-06 14:31:00,68.0,20.0,30.03,NNW,333,8.0,17.0,16,0.00,,,0.00,,2013-02-06 22:31:00,
2013-02-06 14:41:00,68.0,20.0,30.03,NNW,333,8.0,17.0,16,0.00,,,0.00,,2013-02-06 22:41:00,
2013-02-06 14:52:00,68.0,19.0,30.03,North,355,8.0,16.0,15,0.00,,,0.00,,2013-02-06 22:52:00,
2013-02-06 15:01:00,68.0,19.0,30.04,North,11,9.0,17.0,15,0.00,,,0.00,,2013-02-06 23:01:00,
2013-02-06 15:11:00,68.0,19.0,30.04,North,11,9.0,17.0,15,0.00,,,0.00,,2013-02-06 23:11:00,
2013-02-06 15:21:00,67.0,16.0,30.03,NNW,344,9.0,15.0,14,0.00,,,0.00,,2013-02-06 23:21:00,
2013-02-06 15:31:00,67.0,16.0,30.03,NNW,344,9.0,15.0,14,0.00,,,0.00,,2013-02-06 23:31:00,
2013-02-06 15:41:00,67.0,16.0,30.03,NNW,344,9.0,15.0,14,0.00,,,0.00,,2013-02-06 23:41:00,
2013-02-06 15:51:00,67.0,19.0,30.04,North,5,7.0,16.0,16,0.00,,,0.00,,2013-02-06 23:51:00,
2013-02-06 16:01:00,66.0,19.0,30.04,NNW,348,3.0,11.0,16,0.00,,,0.00,,2013-02-07 00:01:00,
2013-02-06 16:11:00,66.0,19.0,30.04,NNW,348,3.0,11.0,16,0.00,,,0.00,,2013-02-07 00:11:00,
2013-02-06 16:21:00,66.0,20.0,30.04,North,5,3.0,11.0,17,0.00,,,0.00,,2013-02-07 00:21:00,
2013-02-06 16:31:00,66.0,19.0,30.04,NNW,339,6.0,9.0,16,0.00,,,0.00,,2013-02-07 00:31:00,
2013-02-06 16:41:00,66.0,19.0,30.04,NNW,339,6.0,9.0,16,0.00,,,0.00,,2013-02-07 00:41:00,
2013-02-06 16:51:00,65.0,19.0,30.05,NNW,339,5.0,8.0,17,0.00,,,0.00,,2013-02-07 00:51:00,
2013-02-06 17:01:00,64.0,18.0,30.05,NNW,337,4.0,8.0,17,0.00,,,0.00,,2013-02-07 01:01:00,
2013-02-06 17:11:00,64.0,18.0,30.05,NNW,337,4.0,8.0,17,0.00,,,0.00,,2013-02-07 01:11:00,
2013-02-06 17:21:00,64.0,18.0,30.06,NW,324,3.0,7.0,17,0.00,,,0.00,,2013-02-07 01:21:00,
2013-02-06 17:31:00,64.0,18.0,30.06,NW,324,3.0,7.0,17,0.00,,,0.00,,2013-02-07 01:31:00,
2013-02-06 17:41:00,64.0,18.0,30.06,NW,324,3.0,7.0,17,0.00,,,0.00,,2013-02-07 01:41:00,
2013-02-06 17:52:00,63.0,19.0,30.07,NW,323,0.0,5.0,18,0.00,,,0.00,,2013-02-07 01:52:00,
2013-02-06 18:01:00,62.0,19.0,30.07,NW,323,0.0,1.0,19,0.00,,,0.00,,2013-02-07 02:01:00,
2013-02-06 18:11:00,62.0,19.0,30.07,NW,323,0.0,1.0,19,0.00,,,0.00,,2013-02-07 02:11:00,
2013-02-06 18:21:00,61.0,18.0,30.08,NW,323,1.0,4.0,19,0.00,,,0.00,,2013-02-07 02:21:00,
2013-02-06 18:31:00,60.0,18.0,30.08,NW,322,2.0,4.0,19,0.00,,,0.00,,2013-02-07 02:31:00,
2013-02-06 18:41:00,60.0,18.0,30.08,NW,322,2.0,4.0,19,0.00,,,0.00,,2013-02-07 02:41:00,
2013-02-06 18:51:00,60.0,18.0,30.08,NW,322,2.0,4.0,19,0.00,,,0.00,,2013-02-07 02:51:00,
2013-02-06 19:02:00,59.0,17.0,30.09,NW,321,2.0,5.0,19,0.00,,,0.00,,2013-02-07 03:02:00,
2013-02-06 19:11:00,59.0,17.0,30.09,NW,321,2.0,5.0,19,0.00,,,0.00,,2013-02-07 03:11:00,
2013-02-06 19:21:00,58.0,17.0,30.09,NW,321,0.0,3.0,20,0.00,,,0.00,,2013-02-07 03:21:00,
2013-02-06 19:31:00,57.0,16.0,30.10,NW,321,0.0,2.0,20,0.00,,,0.00,,2013-02-07 03:31:00,
2013-02-06 19:41:00,57.0,16.0,30.10,NW,321,0.0,2.0,20,0.00,,,0.00,,2013-02-07 03:41:00,
2013-02-06 19:51:00,57.0,17.0,30.10,NW,321,0.0,1.0,21,0.00,,,0.00,,2013-02-07 03:51:00,
2013-02-06 20:01:00,56.0,18.0,30.10,NW,321,0.0,2.0,22,0.00,,,0.00,,2013-02-07 04:01:00,
2013-02-06 20:11:00,56.0,18.0,30.10,NW,321,0.0,2.0,22,0.00,,,0.00,,2013-02-07 04:11:00,
2013-02-06 20:22:00,55.0,17.0,30.11,NW,321,0.0,0.0,22,0.00,,,0.00,,2013-02-07 04:22:00,
2013-02-06 20:31:00,54.0,17.0,30.11,NW,321,0.0,3.0,23,0.00,,,0.00,,2013-02-07 04:31:00,
2013-02-06 20:41:00,54.0,17.0,30.11,NW,321,0.0,3.0,23,0.00,,,0.00,,2013-02-07 04:41:00,
2013-02-06 20:52:00,54.0,18.0,30.12,NW,321,0.0,1.0,24,0.00,,,0.00,,2013-02-07 04:52:00,
2013-02-06 21:01:00,53.0,16.0,30.12,WSW,244,4.0,5.0,23,0.00,,,0.00,,2013-02-07 05:01:00,
2013-02-06 21:11:00,53.0,16.0,30.12,WSW,244,4.0,5.0,23,0.00,,,0.00,,2013-02-07 05:11:00,
2013-02-06 21:21:00,53.0,17.0,30.13,WSW,243,2.0,4.0,24,0.00,,,0.00,,2013-02-07 05:21:00,
2013-02-06 21:32:00,52.0,16.0,30.14,WSW,243,1.0,2.0,24,0.00,,,0.00,,2013-02-07 05:32:00,
2013-02-06 21:42:00,52.0,16.0,30.14,WSW,243,1.0,2.0,24,0.00,,,0.00,,2013-02-07 05:42:00,
2013-02-06 21:52:00,52.0,16.0,30.14,WSW,244,1.0,5.0,24,0.00,,,0.00,,2013-02-07 05:52:00,
2013-02-06 22:01:00,51.0,16.0,30.15,WSW,245,0.0,5.0,25,0.00,,,0.00,,2013-02-07 06:01:00,
2013-02-06 22:11:00,51.0,16.0,30.15,WSW,245,0.0,5.0,25,0.00,,,0.00,,2013-02-07 06:11:00,
2013-02-06 22:22:00,50.0,16.0,30.16,WSW,245,0.0,2.0,26,0.00,,,0.00,,2013-02-07 06:22:00,
2013-02-06 22:31:00,49.0,17.0,30.16,WSW,245,0.0,2.0,28,0.00,,,0.00,,2013-02-07 06:31:00,
2013-02-06 22:43:00,49.0,17.0,30.16,WSW,245,0.0,2.0,28,0.00,,,0.00,,2013-02-07 06:43:00,
2013-02-06 22:52:00,49.0,17.0,30.16,WSW,245,0.0,2.0,28,0.00,,,0.00,,2013-02-07 06:52:00,
2013-02-06 23:01:00,48.0,17.0,30.16,WSW,245,0.0,2.0,29,0.00,,,0.00,,2013-02-07 07:01:00,
2013-02-06 23:11:00,48.0,17.0,30.16,WSW,245,0.0,2.0,29,0.00,,,0.00,,2013-02-07 07:11:00,
2013-02-06 23:21:00,47.0,17.0,30.16,WSW,245,0.0,3.0,30,0.00,,,0.00,,2013-02-07 07:21:00,
2013-02-06 23:31:00,47.0,17.0,30.17,WSW,245,0.0,2.0,30,0.00,,,0.00,,2013-02-07 07:31:00,
2013-02-06 23:41:00,47.0,17.0,30.17,WSW,245,0.0,2.0,30,0.00,,,0.00,,2013-02-07 07:41:00,
2013-02-06 23:52:00,47.0,18.0,30.18,WSW,245,0.0,0.0,31,0.00,,,0.00,,2013-02-07 07:52:00,